createdAt,value
2023-09-27T00:00:22.433Z,43.99
2023-09-27T00:01:23.014Z,44.47
2023-09-27T00:02:22.465Z,45.76
2023-09-27T00:03:22.506Z,44.31
2023-09-27T00:04:22.480Z,41.89
2023-09-27T00:05:22.549Z,40.93
2023-09-27T00:06:22.405Z,42.38
2023-09-27T00:07:22.490Z,46.41
2023-09-27T00:08:22.433Z,48.34
2023-09-27T00:09:22.371Z,47.70
2023-09-27T00:10:22.394Z,47.37
2023-09-27T00:11:22.446Z,48.50
2023-09-27T00:12:22.931Z,48.82
2023-09-27T00:13:22.367Z,48.82
2023-09-27T00:14:22.411Z,48.50
2023-09-27T00:15:22.378Z,47.21
2023-09-27T00:16:22.356Z,48.50
2023-09-27T00:17:22.353Z,47.05
2023-09-27T00:18:22.436Z,49.15
2023-09-27T00:19:22.305Z,49.31
2023-09-27T00:20:22.383Z,46.25
2023-09-27T00:21:22.312Z,47.05
2023-09-27T00:22:22.297Z,46.08
2023-09-27T00:23:22.865Z,46.41
2023-09-27T00:24:22.280Z,48.50
2023-09-27T00:25:22.290Z,46.89
2023-09-27T00:26:22.390Z,47.21
2023-09-27T00:27:22.258Z,46.41
2023-09-27T00:28:22.263Z,47.70
2023-09-27T00:29:22.326Z,46.89
2023-09-27T00:30:22.241Z,48.82
2023-09-27T00:31:22.284Z,50.27
2023-09-27T00:32:22.275Z,48.34
2023-09-27T00:33:22.282Z,47.05
2023-09-27T00:34:22.778Z,46.08
2023-09-27T00:35:22.272Z,45.44
2023-09-27T00:36:22.205Z,44.63
2023-09-27T00:37:22.186Z,44.79
2023-09-27T00:38:22.222Z,45.12
2023-09-27T00:39:22.177Z,46.89
2023-09-27T00:40:22.201Z,46.41
2023-09-27T00:41:22.210Z,44.47
2023-09-27T00:42:22.156Z,43.18
2023-09-27T00:43:22.162Z,43.34
2023-09-27T00:44:22.171Z,42.70
2023-09-27T00:45:22.714Z,43.34
2023-09-27T00:46:22.188Z,42.38
2023-09-27T00:47:22.153Z,41.25
2023-09-27T00:48:22.142Z,41.25
2023-09-27T00:49:22.102Z,39.80
2023-09-27T00:50:22.267Z,40.12
2023-09-27T00:51:22.098Z,40.61
2023-09-27T00:52:22.109Z,38.83
2023-09-27T00:53:22.131Z,40.93
2023-09-27T00:54:22.081Z,39.64
2023-09-27T00:55:22.137Z,40.93
2023-09-27T00:56:22.116Z,40.61
2023-09-27T00:57:22.059Z,40.93
2023-09-27T00:58:22.061Z,42.22
2023-09-27T00:59:22.080Z,41.41
2023-09-27T01:00:22.040Z,41.25
2023-09-27T01:01:22.074Z,41.57
2023-09-27T01:02:22.074Z,41.41
2023-09-27T01:03:22.042Z,44.96
2023-09-27T01:04:22.033Z,42.38
2023-09-27T01:05:22.101Z,42.06
2023-09-27T01:06:22.042Z,42.54
2023-09-27T01:07:22.556Z,41.89
2023-09-27T01:08:22.010Z,41.89
2023-09-27T01:09:21.972Z,41.41
2023-09-27T01:10:21.979Z,41.73
2023-09-27T01:11:22.017Z,44.15
2023-09-27T01:12:21.980Z,43.99
2023-09-27T01:13:22.147Z,42.86
2023-09-27T01:14:21.975Z,40.93
2023-09-27T01:15:21.956Z,40.93
2023-09-27T01:16:21.949Z,40.93
2023-09-27T01:17:21.934Z,40.28
2023-09-27T01:18:21.982Z,40.28
2023-09-27T01:19:21.913Z,40.77
2023-09-27T01:20:21.965Z,41.57
2023-09-27T01:21:21.916Z,42.86
2023-09-27T01:22:21.927Z,41.57
2023-09-27T01:23:21.927Z,42.22
2023-09-27T01:24:21.936Z,41.57
2023-09-27T01:25:21.876Z,42.38
2023-09-27T01:26:21.937Z,38.83
2023-09-27T01:27:21.859Z,40.93
2023-09-27T01:28:21.856Z,42.70
2023-09-27T01:29:21.889Z,40.93
2023-09-27T01:30:21.849Z,40.44
2023-09-27T01:31:21.842Z,40.93
2023-09-27T01:32:21.964Z,44.96
2023-09-27T01:33:21.837Z,44.47
2023-09-27T01:34:21.820Z,42.22
2023-09-27T01:35:21.868Z,43.02
2023-09-27T01:36:21.866Z,41.09
2023-09-27T01:37:21.795Z,42.54
2023-09-27T01:38:21.846Z,44.96
2023-09-27T01:39:21.779Z,45.28
2023-09-27T01:40:21.801Z,43.18
2023-09-27T01:41:21.785Z,42.06
2023-09-27T01:42:21.764Z,43.67
2023-09-27T01:43:21.737Z,44.63
2023-09-27T01:44:21.765Z,46.89
2023-09-27T01:45:21.757Z,44.47
2023-09-27T01:46:21.762Z,46.73
2023-09-27T01:47:21.720Z,45.76
2023-09-27T01:48:21.733Z,45.12
2023-09-27T01:49:21.709Z,46.57
2023-09-27T01:50:21.715Z,46.73
2023-09-27T01:51:21.793Z,45.92
2023-09-27T01:52:21.688Z,45.12
2023-09-27T01:53:21.731Z,42.70
2023-09-27T01:54:21.689Z,44.79
2023-09-27T01:55:21.644Z,44.47
2023-09-27T01:56:21.679Z,44.96
2023-09-27T01:57:21.657Z,45.28
2023-09-27T01:58:21.626Z,45.12
2023-09-27T01:59:21.715Z,44.15
2023-09-27T02:00:21.633Z,43.83
2023-09-27T02:01:21.610Z,45.12
2023-09-27T02:02:22.089Z,42.22
2023-09-27T02:03:21.703Z,43.99
2023-09-27T02:04:21.594Z,42.06
2023-09-27T02:05:21.719Z,43.18
2023-09-27T02:06:21.592Z,42.86
2023-09-27T02:07:21.591Z,43.83
2023-09-27T02:08:21.625Z,45.92
2023-09-27T02:09:21.562Z,45.28
2023-09-27T02:10:21.570Z,43.99
2023-09-27T02:11:21.649Z,46.25
2023-09-27T02:12:21.563Z,44.63
2023-09-27T02:13:21.557Z,46.25
2023-09-27T02:14:21.548Z,45.92
2023-09-27T02:15:21.504Z,46.08
2023-09-27T02:16:21.628Z,45.92
2023-09-27T02:17:21.558Z,47.21
2023-09-27T02:18:21.490Z,45.60
2023-09-27T02:19:21.522Z,46.25
2023-09-27T02:20:21.554Z,45.76
2023-09-27T02:21:21.461Z,46.57
2023-09-27T02:22:21.476Z,45.76
2023-09-27T02:23:21.479Z,46.73
2023-09-27T02:24:21.974Z,46.41
2023-09-27T02:25:21.460Z,46.08
2023-09-27T02:26:21.507Z,45.92
2023-09-27T02:27:21.434Z,46.57
2023-09-27T02:28:21.430Z,45.76
2023-09-27T02:29:21.479Z,46.41
2023-09-27T02:30:21.421Z,46.25
2023-09-27T02:31:21.436Z,46.25
2023-09-27T02:32:21.446Z,46.57
2023-09-27T02:33:21.414Z,45.12
2023-09-27T02:34:21.375Z,45.28
2023-09-27T02:35:21.737Z,45.28
2023-09-27T02:36:21.368Z,44.15
2023-09-27T02:37:21.349Z,43.99
2023-09-27T02:38:21.394Z,46.57
2023-09-27T02:39:21.355Z,46.41
2023-09-27T02:40:21.363Z,47.21
2023-09-27T02:41:21.362Z,45.44
2023-09-27T02:42:21.354Z,46.08
2023-09-27T02:43:21.313Z,47.37
2023-09-27T02:44:21.343Z,46.25
2023-09-27T02:45:21.307Z,45.60
2023-09-27T02:46:21.324Z,48.82
2023-09-27T02:47:21.361Z,44.47
2023-09-27T02:48:21.319Z,44.96
2023-09-27T02:49:21.324Z,44.31
2023-09-27T02:50:21.320Z,46.57
2023-09-27T02:51:21.256Z,46.41
2023-09-27T02:52:21.262Z,45.44
2023-09-27T02:53:21.296Z,46.41
2023-09-27T02:54:21.254Z,44.15
2023-09-27T02:55:21.227Z,45.60
2023-09-27T02:56:21.246Z,47.05
2023-09-27T02:57:21.538Z,46.25
2023-09-27T02:58:21.236Z,47.37
2023-09-27T02:59:21.229Z,48.50
2023-09-27T03:00:21.237Z,46.73
2023-09-27T03:01:21.267Z,48.50
2023-09-27T03:02:21.253Z,42.38
2023-09-27T03:03:21.345Z,43.67
2023-09-27T03:04:21.160Z,48.34
2023-09-27T03:05:21.182Z,48.82
2023-09-27T03:06:21.143Z,45.28
2023-09-27T03:07:21.156Z,45.76
2023-09-27T03:08:21.196Z,46.08
2023-09-27T03:09:21.135Z,46.08
2023-09-27T03:10:21.118Z,46.57
2023-09-27T03:11:21.144Z,46.41
2023-09-27T03:12:21.144Z,44.96
2023-09-27T03:13:21.113Z,46.41
2023-09-27T03:14:21.441Z,46.73
2023-09-27T03:15:21.095Z,45.28
2023-09-27T03:16:21.078Z,46.08
2023-09-27T03:17:21.119Z,46.89
2023-09-27T03:18:21.124Z,45.76
2023-09-27T03:19:21.118Z,45.44
2023-09-27T03:20:21.540Z,45.28
2023-09-27T03:21:21.036Z,43.51
2023-09-27T03:22:21.053Z,42.70
2023-09-27T03:23:21.041Z,43.02
2023-09-27T03:24:21.038Z,42.38
2023-09-27T03:25:21.027Z,43.51
2023-09-27T03:26:21.045Z,44.63
2023-09-27T03:27:21.028Z,41.41
2023-09-27T03:28:21.003Z,41.09
2023-09-27T03:29:21.016Z,41.89
2023-09-27T03:30:21.412Z,43.02
2023-09-27T03:31:21.096Z,50.60
2023-09-27T03:32:21.056Z,46.89
2023-09-27T03:33:21.006Z,47.86
2023-09-27T03:34:20.961Z,47.21
2023-09-27T03:35:21.040Z,49.31
2023-09-27T03:36:20.989Z,48.02
2023-09-27T03:37:20.952Z,47.05
2023-09-27T03:38:21.006Z,48.18
2023-09-27T03:39:20.922Z,47.37
2023-09-27T03:40:20.910Z,48.02
2023-09-27T03:41:20.988Z,46.73
2023-09-27T03:42:20.910Z,47.86
2023-09-27T03:43:20.882Z,49.31
2023-09-27T03:44:20.913Z,46.25
2023-09-27T03:45:20.885Z,47.05
2023-09-27T03:46:20.945Z,47.86
2023-09-27T03:47:20.970Z,47.21
2023-09-27T03:48:21.094Z,46.25
2023-09-27T03:49:20.849Z,46.08
2023-09-27T03:50:20.915Z,48.02
2023-09-27T03:51:20.830Z,45.44
2023-09-27T03:52:21.390Z,45.60
2023-09-27T03:53:20.883Z,45.92
2023-09-27T03:54:20.806Z,45.76
2023-09-27T03:55:20.817Z,45.76
2023-09-27T03:56:20.831Z,46.41
2023-09-27T03:57:20.792Z,44.63
2023-09-27T03:58:20.792Z,45.92
2023-09-27T03:59:20.876Z,45.60
2023-09-27T04:00:21.798Z,44.47
2023-09-27T04:01:20.824Z,45.76
2023-09-27T04:02:20.797Z,47.05
2023-09-27T04:03:21.433Z,47.21
2023-09-27T04:04:20.806Z,47.05
2023-09-27T04:05:20.775Z,46.73
2023-09-27T04:06:20.733Z,46.73
2023-09-27T04:07:20.734Z,45.92
2023-09-27T04:08:20.748Z,46.89
2023-09-27T04:09:20.720Z,46.73
2023-09-27T04:10:20.724Z,47.70
2023-09-27T04:11:20.718Z,46.25
2023-09-27T04:12:20.711Z,45.76
2023-09-27T04:13:20.689Z,46.25
2023-09-27T04:14:21.152Z,45.76
2023-09-27T04:15:20.665Z,46.73
2023-09-27T04:16:20.684Z,47.05
2023-09-27T04:17:20.671Z,48.18
2023-09-27T04:18:20.753Z,47.37
2023-09-27T04:19:20.649Z,48.66
2023-09-27T04:20:20.742Z,49.79
2023-09-27T04:21:20.625Z,49.79
2023-09-27T04:22:20.679Z,50.92
2023-09-27T04:23:20.618Z,51.24
2023-09-27T04:24:20.602Z,48.98
2023-09-27T04:25:21.070Z,48.02
2023-09-27T04:26:20.636Z,52.05
2023-09-27T04:27:20.594Z,50.76
2023-09-27T04:28:20.576Z,51.40
2023-09-27T04:29:20.625Z,51.56
2023-09-27T04:30:20.653Z,50.76
2023-09-27T04:31:20.705Z,52.05
2023-09-27T04:32:20.609Z,52.85
2023-09-27T04:33:20.598Z,51.72
2023-09-27T04:34:20.573Z,49.95
2023-09-27T04:35:20.653Z,50.27
2023-09-27T04:36:21.081Z,50.60
2023-09-27T04:37:20.533Z,50.43
2023-09-27T04:38:20.541Z,51.08
2023-09-27T04:39:20.502Z,52.05
2023-09-27T04:40:20.529Z,52.05
2023-09-27T04:41:20.508Z,52.05
2023-09-27T04:42:20.800Z,51.72
2023-09-27T04:43:20.508Z,52.05
2023-09-27T04:44:20.497Z,51.24
2023-09-27T04:45:20.460Z,51.40
2023-09-27T04:46:20.521Z,50.60
2023-09-27T04:47:20.538Z,53.01
2023-09-27T04:48:20.451Z,53.82
2023-09-27T04:49:20.450Z,53.66
2023-09-27T04:50:20.466Z,52.05
2023-09-27T04:51:20.436Z,53.01
2023-09-27T04:52:20.446Z,51.72
2023-09-27T04:53:20.445Z,54.62
2023-09-27T04:54:20.413Z,53.66
2023-09-27T04:55:20.405Z,52.53
2023-09-27T04:56:20.409Z,53.50
2023-09-27T04:57:20.391Z,54.46
2023-09-27T04:58:20.868Z,51.88
2023-09-27T04:59:20.399Z,50.43
2023-09-27T05:00:21.171Z,50.92
2023-09-27T05:01:20.383Z,52.21
2023-09-27T05:02:20.372Z,52.69
2023-09-27T05:03:20.454Z,50.43
2023-09-27T05:04:20.406Z,49.63
2023-09-27T05:05:20.440Z,48.82
2023-09-27T05:06:20.349Z,46.25
2023-09-27T05:07:20.374Z,47.05
2023-09-27T05:08:20.339Z,47.70
2023-09-27T05:09:20.766Z,47.70
2023-09-27T05:10:20.307Z,48.98
2023-09-27T05:11:20.303Z,48.34
2023-09-27T05:12:20.289Z,47.53
2023-09-27T05:13:20.266Z,47.70
2023-09-27T05:14:20.329Z,48.34
2023-09-27T05:15:20.628Z,46.41
2023-09-27T05:16:20.332Z,46.73
2023-09-27T05:17:20.243Z,45.92
2023-09-27T05:18:20.282Z,45.12
2023-09-27T05:19:20.242Z,48.18
2023-09-27T05:20:20.602Z,46.73
2023-09-27T05:21:20.225Z,46.57
2023-09-27T05:22:20.227Z,45.76
2023-09-27T05:23:20.246Z,45.60
2023-09-27T05:24:20.195Z,45.76
2023-09-27T05:25:20.265Z,47.53
2023-09-27T05:26:20.301Z,47.05
2023-09-27T05:27:20.192Z,47.53
2023-09-27T05:28:20.152Z,46.25
2023-09-27T05:29:20.215Z,46.08
2023-09-27T05:30:20.144Z,48.34
2023-09-27T05:31:20.813Z,47.37
2023-09-27T05:32:20.191Z,48.34
2023-09-27T05:33:20.170Z,47.21
2023-09-27T05:34:20.125Z,48.18
2023-09-27T05:35:20.154Z,47.37
2023-09-27T05:36:20.121Z,47.37
2023-09-27T05:37:20.098Z,46.25
2023-09-27T05:38:20.190Z,46.25
2023-09-27T05:39:20.092Z,46.73
2023-09-27T05:40:20.071Z,46.25
2023-09-27T05:41:20.116Z,47.05
2023-09-27T05:42:20.084Z,46.73
2023-09-27T05:43:20.054Z,46.57
2023-09-27T05:44:20.118Z,47.05
2023-09-27T05:45:20.042Z,46.25
2023-09-27T05:46:20.075Z,45.76
2023-09-27T05:47:20.069Z,46.89
2023-09-27T05:48:20.036Z,46.41
2023-09-27T05:49:20.021Z,46.41
2023-09-27T05:50:20.034Z,45.28
2023-09-27T05:51:20.026Z,45.60
2023-09-27T05:52:19.996Z,45.60
2023-09-27T05:53:20.640Z,46.25
2023-09-27T05:54:20.000Z,45.92
2023-09-27T05:55:19.975Z,45.92
2023-09-27T05:56:20.060Z,45.60
2023-09-27T05:57:19.959Z,45.76
2023-09-27T05:58:19.975Z,46.25
2023-09-27T05:59:20.067Z,45.92
2023-09-27T06:00:19.955Z,46.73
2023-09-27T06:01:19.995Z,47.21
2023-09-27T06:02:19.930Z,47.05
2023-09-27T06:03:19.959Z,46.25
2023-09-27T06:04:20.401Z,45.12
2023-09-27T06:05:19.972Z,44.47
2023-09-27T06:06:19.901Z,45.76
2023-09-27T06:07:19.886Z,47.21
2023-09-27T06:08:19.914Z,46.08
2023-09-27T06:09:19.882Z,48.02
2023-09-27T06:10:19.909Z,51.72
2023-09-27T06:11:19.984Z,52.21
2023-09-27T06:12:19.852Z,50.60
2023-09-27T06:13:19.853Z,49.95
2023-09-27T06:14:19.850Z,51.08
2023-09-27T06:15:20.161Z,50.11
2023-09-27T06:16:19.891Z,48.02
2023-09-27T06:17:19.905Z,47.37
2023-09-27T06:18:19.892Z,48.02
2023-09-27T06:19:19.843Z,48.02
2023-09-27T06:20:19.827Z,48.18
2023-09-27T06:21:19.791Z,47.70
2023-09-27T06:22:19.802Z,47.70
2023-09-27T06:23:19.823Z,48.66
2023-09-27T06:24:19.767Z,48.34
2023-09-27T06:25:19.775Z,49.47
2023-09-27T06:26:20.640Z,49.95
2023-09-27T06:27:19.755Z,49.15
2023-09-27T06:28:19.750Z,49.79
2023-09-27T06:29:19.799Z,49.95
2023-09-27T06:30:19.733Z,47.70
2023-09-27T06:31:19.810Z,49.15
2023-09-27T06:32:19.739Z,50.43
2023-09-27T06:33:19.724Z,51.72
2023-09-27T06:34:19.698Z,49.95
2023-09-27T06:35:19.748Z,48.50
2023-09-27T06:36:19.708Z,48.02
2023-09-27T06:37:19.718Z,48.18
2023-09-27T06:38:19.716Z,47.53
2023-09-27T06:39:19.663Z,46.73
2023-09-27T06:40:19.646Z,47.70
2023-09-27T06:41:19.793Z,47.53
2023-09-27T06:42:19.697Z,48.82
2023-09-27T06:43:19.627Z,47.37
2023-09-27T06:44:19.689Z,46.25
2023-09-27T06:45:19.608Z,48.34
2023-09-27T06:46:19.649Z,48.18
2023-09-27T06:47:19.691Z,46.41
2023-09-27T06:48:20.247Z,47.05
2023-09-27T06:49:19.599Z,48.02
2023-09-27T06:50:19.619Z,48.18
2023-09-27T06:51:19.560Z,46.08
2023-09-27T06:52:19.579Z,47.05
2023-09-27T06:53:22.494Z,48.02
2023-09-27T06:54:20.571Z,47.21
2023-09-27T06:55:19.573Z,46.25
2023-09-27T06:56:19.590Z,45.44
2023-09-27T06:57:19.524Z,46.25
2023-09-27T06:58:19.558Z,45.92
2023-09-27T06:59:19.561Z,43.67
2023-09-27T07:00:19.519Z,42.70
2023-09-27T07:01:19.530Z,44.79
2023-09-27T07:02:19.549Z,44.47
2023-09-27T07:03:19.575Z,44.15
2023-09-27T07:04:19.533Z,43.83
2023-09-27T07:05:19.522Z,42.38
2023-09-27T07:06:19.494Z,43.83
2023-09-27T07:07:19.472Z,43.83
2023-09-27T07:08:19.498Z,43.67
2023-09-27T07:09:19.442Z,42.70
2023-09-27T07:10:19.492Z,43.34
2023-09-27T07:11:19.456Z,43.83
2023-09-27T07:12:19.422Z,43.18
2023-09-27T07:13:19.429Z,44.96
2023-09-27T07:14:19.469Z,45.92
2023-09-27T07:15:19.402Z,44.79
2023-09-27T07:16:19.440Z,47.05
2023-09-27T07:17:19.452Z,46.08
2023-09-27T07:18:19.519Z,47.21
2023-09-27T07:19:19.424Z,47.21
2023-09-27T07:20:19.453Z,48.66
2023-09-27T07:21:19.399Z,47.21
2023-09-27T07:22:19.362Z,47.53
2023-09-27T07:23:19.417Z,47.21
2023-09-27T07:24:19.384Z,48.34
2023-09-27T07:25:19.360Z,46.25
2023-09-27T07:26:19.353Z,46.41
2023-09-27T07:27:19.343Z,46.89
2023-09-27T07:28:19.309Z,47.37
2023-09-27T07:29:19.347Z,46.73
2023-09-27T07:30:19.337Z,48.34
2023-09-27T07:31:19.695Z,48.50
2023-09-27T07:32:19.368Z,48.82
2023-09-27T07:33:19.304Z,50.76
2023-09-27T07:34:19.267Z,49.47
2023-09-27T07:35:19.328Z,48.66
2023-09-27T07:36:19.261Z,46.25
2023-09-27T07:37:19.257Z,48.66
2023-09-27T07:38:19.305Z,49.15
2023-09-27T07:39:19.241Z,48.50
2023-09-27T07:40:19.273Z,48.50
2023-09-27T07:41:19.237Z,46.08
2023-09-27T07:42:19.216Z,47.53
2023-09-27T07:43:19.239Z,49.31
2023-09-27T07:44:19.305Z,48.98
2023-09-27T07:45:19.205Z,47.21
2023-09-27T07:46:19.233Z,47.70
2023-09-27T07:47:19.232Z,47.05
2023-09-27T07:48:19.326Z,45.92
2023-09-27T07:49:19.172Z,47.86
2023-09-27T07:50:19.184Z,47.05
2023-09-27T07:51:19.162Z,47.21
2023-09-27T07:52:19.145Z,47.37
2023-09-27T07:53:19.182Z,47.70
2023-09-27T07:54:19.230Z,49.15
2023-09-27T07:55:19.230Z,49.79
2023-09-27T07:56:19.194Z,50.27
2023-09-27T07:57:19.128Z,49.95
2023-09-27T07:58:19.158Z,49.15
2023-09-27T07:59:19.140Z,48.50
2023-09-27T08:00:19.108Z,49.15
2023-09-27T08:01:19.138Z,48.50
2023-09-27T08:02:19.420Z,47.70
2023-09-27T08:03:19.276Z,47.37
2023-09-27T08:04:19.173Z,48.02
2023-09-27T08:05:19.142Z,47.05
2023-09-27T08:06:19.064Z,47.37
2023-09-27T08:07:19.050Z,46.73
2023-09-27T08:08:19.094Z,46.73
2023-09-27T08:09:35.039Z,46.89
2023-09-27T08:10:21.863Z,47.05
2023-09-27T08:11:19.074Z,47.21
2023-09-27T08:12:19.029Z,48.50
2023-09-27T08:13:19.010Z,48.34
2023-09-27T08:14:19.024Z,46.89
2023-09-27T08:15:19.423Z,48.82
2023-09-27T08:16:19.497Z,50.27
2023-09-27T08:17:19.051Z,48.02
2023-09-27T08:18:19.167Z,48.98
2023-09-27T08:19:18.985Z,47.70
2023-09-27T08:20:19.008Z,45.92
2023-09-27T08:21:18.947Z,46.25
2023-09-27T08:22:18.941Z,47.05
2023-09-27T08:23:18.976Z,46.25
2023-09-27T08:24:18.951Z,45.92
2023-09-27T08:25:18.951Z,47.53
2023-09-27T08:26:18.966Z,46.73
2023-09-27T08:27:18.936Z,45.92
2023-09-27T08:28:18.905Z,49.31
2023-09-27T08:29:18.910Z,48.18
2023-09-27T08:30:18.899Z,49.79
2023-09-27T08:31:18.963Z,48.98
2023-09-27T08:32:18.934Z,49.63
2023-09-27T08:33:18.943Z,49.15
2023-09-27T08:34:18.883Z,48.18
2023-09-27T08:35:18.892Z,49.15
2023-09-27T08:36:18.840Z,48.34
2023-09-27T08:37:18.850Z,48.82
2023-09-27T08:38:19.320Z,48.02
2023-09-27T08:39:18.820Z,47.21
2023-09-27T08:40:18.837Z,47.86
2023-09-27T08:41:18.826Z,51.08
2023-09-27T08:42:18.795Z,48.34
2023-09-27T08:43:18.802Z,48.34
2023-09-27T08:44:18.828Z,48.34
2023-09-27T08:45:18.792Z,48.98
2023-09-27T08:46:18.805Z,46.41
2023-09-27T08:47:18.808Z,47.86
2023-09-27T08:48:18.813Z,47.05
2023-09-27T08:49:18.780Z,46.89
2023-09-27T08:50:18.841Z,47.53
2023-09-27T08:51:18.756Z,47.53
2023-09-27T08:52:18.737Z,48.50
2023-09-27T08:53:18.811Z,48.02
2023-09-27T08:54:18.753Z,51.08
2023-09-27T08:55:18.750Z,52.37
2023-09-27T08:56:18.775Z,50.92
2023-09-27T08:57:18.693Z,52.05
2023-09-27T08:58:18.685Z,51.08
2023-09-27T08:59:18.748Z,53.01
2023-09-27T09:00:18.782Z,53.01
2023-09-27T09:01:18.695Z,52.37
2023-09-27T09:02:18.675Z,52.05
2023-09-27T09:03:18.783Z,53.01
2023-09-27T09:04:18.711Z,50.92
2023-09-27T09:05:18.684Z,48.98
2023-09-27T09:06:18.733Z,50.27
2023-09-27T09:07:18.632Z,48.82
2023-09-27T09:08:26.355Z,49.47
2023-09-27T09:09:19.640Z,49.79
2023-09-27T09:10:18.604Z,50.43
2023-09-27T09:11:19.423Z,51.56
2023-09-27T09:12:18.591Z,50.92
2023-09-27T09:13:18.600Z,49.95
2023-09-27T09:14:18.651Z,50.11
2023-09-27T09:15:18.609Z,50.43
2023-09-27T09:16:18.613Z,51.72
2023-09-27T09:17:18.607Z,52.85
2023-09-27T09:18:18.592Z,51.08
2023-09-27T09:19:26.125Z,52.53
2023-09-27T09:20:19.569Z,50.92
2023-09-27T09:21:18.549Z,52.05
2023-09-27T09:22:18.593Z,51.88
2023-09-27T09:23:18.590Z,52.69
2023-09-27T09:24:18.508Z,51.56
2023-09-27T09:25:18.523Z,51.56
2023-09-27T09:26:18.516Z,51.72
2023-09-27T09:27:18.774Z,53.33
2023-09-27T09:28:18.499Z,52.85
2023-09-27T09:29:18.535Z,51.08
2023-09-27T09:30:18.514Z,51.08
2023-09-27T09:31:18.546Z,50.27
2023-09-27T09:32:18.506Z,49.63
2023-09-27T09:33:18.746Z,51.40
2023-09-27T09:34:18.455Z,51.08
2023-09-27T09:35:18.498Z,50.27
2023-09-27T09:36:18.435Z,50.60
2023-09-27T09:37:18.443Z,51.24
2023-09-27T09:38:18.490Z,50.27
2023-09-27T09:39:18.574Z,50.76
2023-09-27T09:40:18.582Z,50.60
2023-09-27T09:41:18.463Z,50.92
2023-09-27T09:42:18.388Z,50.60
2023-09-27T09:43:18.395Z,50.92
2023-09-27T09:44:18.409Z,52.05
2023-09-27T09:45:18.394Z,50.60
2023-09-27T09:46:18.415Z,50.11
2023-09-27T09:47:18.370Z,51.72
2023-09-27T09:48:18.363Z,50.11
2023-09-27T09:49:18.384Z,53.17
2023-09-27T09:50:18.658Z,52.21
2023-09-27T09:51:18.344Z,50.60
2023-09-27T09:52:18.327Z,53.82
2023-09-27T09:53:18.320Z,53.98
2023-09-27T09:54:18.330Z,52.37
2023-09-27T09:55:26.331Z,52.37
2023-09-27T09:57:28.001Z,49.15
2023-09-27T09:58:19.311Z,46.25
2023-09-27T09:59:18.308Z,47.05
2023-09-27T10:00:18.272Z,47.86
2023-09-27T10:01:18.257Z,46.57
2023-09-27T10:02:18.341Z,48.18
2023-09-27T10:03:18.382Z,46.89
2023-09-27T10:04:18.318Z,46.57
2023-09-27T10:05:18.275Z,45.44
2023-09-27T10:06:18.705Z,45.44
2023-09-27T10:07:18.225Z,45.12
2023-09-27T10:08:18.228Z,46.25
2023-09-27T10:09:18.286Z,47.37
2023-09-27T10:10:18.333Z,50.43
2023-09-27T10:11:18.199Z,45.76
2023-09-27T10:12:18.401Z,44.63
2023-09-27T10:13:18.170Z,48.66
2023-09-27T10:14:18.246Z,48.18
2023-09-27T10:15:18.167Z,43.51
2023-09-27T10:16:18.173Z,43.99
2023-09-27T10:17:18.744Z,41.57
2023-09-27T10:18:18.221Z,42.22
2023-09-27T10:19:18.297Z,39.64
2023-09-27T10:20:18.156Z,39.16
2023-09-27T10:21:18.143Z,39.48
2023-09-27T10:22:18.128Z,40.44
2023-09-27T10:23:18.167Z,40.77
2023-09-27T10:24:18.116Z,39.16
2023-09-27T10:25:18.101Z,42.22
2023-09-27T10:26:18.165Z,53.98
2023-09-27T10:27:18.123Z,43.83
2023-09-27T10:28:18.685Z,42.54
2023-09-27T10:29:18.159Z,41.25
2023-09-27T10:30:18.062Z,41.89
2023-09-27T10:31:18.097Z,43.51
2023-09-27T10:32:18.114Z,42.22
2023-09-27T10:33:18.175Z,41.89
2023-09-27T10:34:18.099Z,41.09
2023-09-27T10:35:18.148Z,39.64
2023-09-27T10:36:18.089Z,41.89
2023-09-27T10:37:19.756Z,40.93
2023-09-27T10:38:18.045Z,40.61
2023-09-27T10:39:18.067Z,39.48
2023-09-27T10:40:18.013Z,38.99
2023-09-27T10:41:18.054Z,39.64
2023-09-27T10:42:18.115Z,37.54
2023-09-27T10:43:19.396Z,37.06
2023-09-27T10:44:17.977Z,37.06
2023-09-27T10:45:18.144Z,38.35
2023-09-27T10:46:18.038Z,37.54
2023-09-27T10:47:18.006Z,38.83
2023-09-27T10:48:17.972Z,37.87
2023-09-27T10:49:19.819Z,36.25
2023-09-27T10:50:18.146Z,35.29
2023-09-27T10:51:17.931Z,35.45
2023-09-27T10:52:17.949Z,36.74
2023-09-27T10:53:18.044Z,36.09
2023-09-27T10:54:17.902Z,36.25
2023-09-27T10:55:17.885Z,35.45
2023-09-27T10:56:18.104Z,35.13
2023-09-27T10:57:17.890Z,36.42
2023-09-27T10:58:17.922Z,36.58
2023-09-27T10:59:17.897Z,37.22
2023-09-27T11:00:17.855Z,36.74
2023-09-27T11:01:18.461Z,36.25
2023-09-27T11:02:17.873Z,35.29
2023-09-27T11:03:18.027Z,37.71
2023-09-27T11:04:17.898Z,35.93
2023-09-27T11:05:17.843Z,35.29
2023-09-27T11:06:17.803Z,35.93
2023-09-27T11:07:17.804Z,36.25
2023-09-27T11:08:17.829Z,37.87
2023-09-27T11:09:17.820Z,36.42
2023-09-27T11:10:17.772Z,36.58
2023-09-27T11:11:17.904Z,36.25
2023-09-27T11:12:17.979Z,36.74
2023-09-27T11:13:17.756Z,36.25
2023-09-27T11:14:17.826Z,35.13
2023-09-27T11:15:17.741Z,34.97
2023-09-27T11:16:17.747Z,35.29
2023-09-27T11:17:17.822Z,37.54
2023-09-27T11:18:17.851Z,34.97
2023-09-27T11:19:17.724Z,36.09
2023-09-27T11:20:17.702Z,34.97
2023-09-27T11:21:17.765Z,36.42
2023-09-27T11:22:17.710Z,35.93
2023-09-27T11:23:18.062Z,35.77
2023-09-27T11:24:17.672Z,35.93
2023-09-27T11:25:17.676Z,35.77
2023-09-27T11:26:17.706Z,35.77
2023-09-27T11:27:17.697Z,36.58
2023-09-27T11:28:17.668Z,34.97
2023-09-27T11:29:17.676Z,35.29
2023-09-27T11:30:17.665Z,35.45
2023-09-27T11:31:17.682Z,35.45
2023-09-27T11:32:17.647Z,35.13
2023-09-27T11:33:17.651Z,34.48
2023-09-27T11:34:17.661Z,35.45
2023-09-27T11:35:17.646Z,34.64
2023-09-27T11:36:17.725Z,35.13
2023-09-27T11:37:17.608Z,35.93
2023-09-27T11:38:17.621Z,37.38
2023-09-27T11:39:17.581Z,38.19
2023-09-27T11:40:17.599Z,37.22
2023-09-27T11:41:17.904Z,36.42
2023-09-27T11:42:17.562Z,35.93
2023-09-27T11:43:17.573Z,36.42
2023-09-27T11:44:17.580Z,35.13
2023-09-27T11:45:17.587Z,35.77
2023-09-27T11:46:17.644Z,35.61
2023-09-27T11:47:17.550Z,34.64
2023-09-27T11:48:17.633Z,34.48
2023-09-27T11:49:17.531Z,34.80
2023-09-27T11:50:17.585Z,35.29
2023-09-27T11:51:17.648Z,35.93
2023-09-27T11:52:17.777Z,34.97
2023-09-27T11:53:17.511Z,34.32
2023-09-27T11:54:17.541Z,34.80
2023-09-27T11:55:17.483Z,40.12
2023-09-27T11:56:17.981Z,34.64
2023-09-27T11:57:17.482Z,34.97
2023-09-27T11:58:17.464Z,35.29
2023-09-27T11:59:17.482Z,35.93
2023-09-27T12:00:17.878Z,35.45
2023-09-27T12:01:17.560Z,35.45
2023-09-27T12:02:26.777Z,35.77
2023-09-27T12:03:18.532Z,36.25
2023-09-27T12:04:17.669Z,35.93
2023-09-27T12:05:17.630Z,36.25
2023-09-27T12:06:17.610Z,35.29
2023-09-27T12:07:17.830Z,35.13
2023-09-27T12:08:17.410Z,35.93
2023-09-27T12:09:17.391Z,35.61
2023-09-27T12:10:17.408Z,35.45
2023-09-27T12:11:17.427Z,35.29
2023-09-27T12:12:17.373Z,34.16
2023-09-27T12:13:17.384Z,34.80
2023-09-27T12:14:17.389Z,35.13
2023-09-27T12:15:17.354Z,35.13
2023-09-27T12:16:17.433Z,35.77
2023-09-27T12:17:17.391Z,35.13
2023-09-27T12:18:17.812Z,35.93
2023-09-27T12:19:17.348Z,35.45
2023-09-27T12:20:31.575Z,35.61
2023-09-27T12:21:18.344Z,34.00
2023-09-27T12:22:17.304Z,35.61
2023-09-27T12:23:17.310Z,34.48
2023-09-27T12:24:17.308Z,34.97
2023-09-27T12:25:17.293Z,35.61
2023-09-27T12:26:17.316Z,35.61
2023-09-27T12:27:17.276Z,35.45
2023-09-27T12:28:17.276Z,38.83
2023-09-27T12:29:17.694Z,36.74
2023-09-27T12:30:17.244Z,36.25
2023-09-27T12:31:17.315Z,37.06
2023-09-27T12:32:17.267Z,35.61
2023-09-27T12:33:18.728Z,35.13
2023-09-27T12:34:17.283Z,35.45
2023-09-27T12:35:17.242Z,35.77
2023-09-27T12:36:17.228Z,34.64
2023-09-27T12:37:17.210Z,35.13
2023-09-27T12:38:17.480Z,35.93
2023-09-27T12:39:20.682Z,36.09
2023-09-27T12:40:17.745Z,34.64
2023-09-27T12:41:17.204Z,35.93
2023-09-27T12:42:17.175Z,35.45
2023-09-27T12:43:17.184Z,34.16
2023-09-27T12:44:22.196Z,34.32
2023-09-27T12:45:18.185Z,34.32
2023-09-27T12:46:17.197Z,34.00
2023-09-27T12:47:17.164Z,35.29
2023-09-27T12:48:17.231Z,34.80
2023-09-27T12:49:17.137Z,34.48
2023-09-27T12:50:17.212Z,34.97
2023-09-27T12:51:17.129Z,35.93
2023-09-27T12:52:18.090Z,35.77
2023-09-27T12:53:17.176Z,35.93